Carlson, Washington
Current Conditions -  °F | °C
As of 10:58 AM on Thursday 23 Oct 2014 (Local Time) from KGRF Reporting Station
Light Rain Light Rain  
Wind Chill: 52°   Ceiling: 3600
Heat Index: 52°   Visibility: 8mi
Dew Point: 51°   Wind: 7mph
Humidity: 95%   Direction: 180°S
Pressure: 29.81"   Gusts: NA
Location:  46.6944°N, 122.245°W
Report Text: KGRF 231758Z AUTO 18006KT 8SM -RA FEW009 SCT015 SCT021 BKN036 11/10 A2981 RMK AO2 RAB1748DZE1748 SLP099 P0001 60025 T01120104 10115 20099 52022 $
Loading
Personal Weather Stations






























Interactive Weather Map New forecast layout! Learn more

10-Day Weather Forecast

Advertisements
Track Severe Weather on mobile